createdAt,value
2023-03-16T00:02:21.691Z,100602.34
2023-03-16T00:04:53.106Z,100598.03
2023-03-16T00:07:21.739Z,100608.44
2023-03-16T00:09:49.673Z,100601.88
2023-03-16T00:12:20.510Z,100608.84
2023-03-16T00:14:49.706Z,100601.22
2023-03-16T00:17:20.356Z,100599.38
2023-03-16T00:19:51.622Z,100595.09
2023-03-16T00:22:19.361Z,100588.22
2023-03-16T00:24:47.711Z,100592.53
2023-03-16T00:27:16.292Z,100586.59
2023-03-16T00:29:47.659Z,100586.53
2023-03-16T00:32:17.436Z,100588.38
2023-03-16T00:34:45.782Z,100581.72
2023-03-16T00:37:15.731Z,100588.50
2023-03-16T00:39:46.883Z,100581.59
2023-03-16T00:42:15.968Z,100574.69
2023-03-16T00:44:45.824Z,100573.00
2023-03-16T00:47:15.488Z,100568.63
2023-03-16T00:49:44.550Z,100575.34
2023-03-16T00:52:15.081Z,100569.34
2023-03-16T00:54:47.047Z,100564.38
2023-03-16T00:57:16.550Z,100566.88
2023-03-16T00:59:46.154Z,100566.81
2023-03-16T01:02:14.712Z,100562.59
2023-03-16T01:04:44.475Z,100573.59
2023-03-16T01:07:13.843Z,100572.66
2023-03-16T01:09:42.534Z,100571.34
2023-03-16T01:12:12.767Z,100563.16
2023-03-16T01:14:40.949Z,100570.03
2023-03-16T01:17:10.920Z,100569.28
2023-03-16T01:19:39.556Z,100563.25
2023-03-16T01:22:09.892Z,100562.44
2023-03-16T01:24:40.820Z,100563.31
2023-03-16T01:27:09.652Z,100561.69
2023-03-16T01:29:38.483Z,100560.91
2023-03-16T01:32:07.301Z,100556.66
2023-03-16T01:34:37.115Z,100550.81
2023-03-16T01:37:06.291Z,100545.72
2023-03-16T01:39:47.865Z,100543.09
2023-03-16T01:42:16.596Z,100542.22
2023-03-16T01:44:52.093Z,100538.00
2023-03-16T01:47:21.121Z,100526.91
2023-03-16T01:49:55.351Z,100527.78
2023-03-16T01:52:29.700Z,100533.75
2023-03-16T01:55:00.932Z,100521.81
2023-03-16T01:57:30.973Z,100523.41
2023-03-16T02:00:10.609Z,100525.94
2023-03-16T02:03:19.544Z,100524.97
2023-03-16T02:05:55.995Z,100524.06
2023-03-16T02:08:25.975Z,100512.00
2023-03-16T02:10:57.546Z,100506.91
2023-03-16T02:13:38.790Z,100497.63
2023-03-16T02:16:09.367Z,100495.91
2023-03-16T02:18:38.984Z,100496.75
2023-03-16T02:21:11.683Z,100503.50
2023-03-16T02:23:39.708Z,100509.41
2023-03-16T02:26:12.738Z,100510.28
2023-03-16T02:28:48.256Z,100506.09
2023-03-16T02:31:20.811Z,100493.44
2023-03-16T02:33:50.878Z,100490.91
2023-03-16T02:36:21.045Z,100487.56
2023-03-16T02:38:49.503Z,100490.13
2023-03-16T02:41:20.638Z,100473.22
2023-03-16T02:43:56.137Z,100471.50
2023-03-16T02:46:30.907Z,100462.91
2023-03-16T02:49:03.214Z,100463.56
2023-03-16T02:51:32.532Z,100463.47
2023-03-16T02:54:01.034Z,100462.44
2023-03-16T02:56:31.802Z,100460.63
2023-03-16T02:59:00.298Z,100465.69
2023-03-16T03:01:30.362Z,100465.59
2023-03-16T03:03:58.621Z,100459.00
2023-03-16T03:06:26.813Z,100458.13
2023-03-16T03:08:58.504Z,100460.44
2023-03-16T03:11:27.103Z,100454.38
2023-03-16T03:13:55.337Z,100450.97
2023-03-16T03:16:26.253Z,100448.47
2023-03-16T03:18:57.898Z,100450.09
2023-03-16T03:21:27.287Z,100453.13
2023-03-16T03:23:55.927Z,100448.28
2023-03-16T03:26:24.988Z,100440.06
2023-03-16T03:28:53.939Z,100454.44
2023-03-16T03:31:23.303Z,100452.63
2023-03-16T03:33:55.987Z,100453.53
2023-03-16T03:36:28.156Z,100453.78
2023-03-16T03:38:56.486Z,100448.81
2023-03-16T03:41:24.546Z,100453.63
2023-03-16T03:43:54.291Z,100451.88
2023-03-16T03:46:22.533Z,100456.22
2023-03-16T03:48:51.762Z,100454.63
2023-03-16T03:51:20.357Z,100450.47
2023-03-16T03:54:04.156Z,100454.16
2023-03-16T03:56:51.197Z,100445.66
2023-03-16T03:59:19.731Z,100446.47
2023-03-16T04:02:20.054Z,100454.69
2023-03-16T04:04:51.984Z,100451.25
2023-03-16T04:07:20.336Z,100448.78
2023-03-16T04:09:51.677Z,100454.78
2023-03-16T04:12:43.073Z,100445.47
2023-03-16T04:15:14.598Z,100452.41
2023-03-16T04:18:02.232Z,100458.41
2023-03-16T04:20:30.946Z,100457.56
2023-03-16T04:22:59.556Z,100447.41
2023-03-16T04:25:30.745Z,100443.19
2023-03-16T04:28:00.502Z,100436.44
2023-03-16T04:30:31.185Z,100428.59
2023-03-16T04:33:16.236Z,100436.03
2023-03-16T04:35:46.341Z,100429.31
2023-03-16T04:38:16.883Z,100426.72
2023-03-16T04:40:55.927Z,100425.91
2023-03-16T04:43:28.234Z,100430.22
2023-03-16T04:46:06.044Z,100424.31
2023-03-16T04:48:35.162Z,100418.41
2023-03-16T04:51:06.115Z,100415.91
2023-03-16T04:53:41.013Z,100408.25
2023-03-16T04:56:20.054Z,100410.88
2023-03-16T04:58:57.081Z,100420.13
2023-03-16T05:01:30.221Z,100424.41
2023-03-16T05:04:02.666Z,100417.59
2023-03-16T05:06:33.862Z,100421.06
2023-03-16T05:09:08.317Z,100434.69
2023-03-16T05:11:40.413Z,100421.09
2023-03-16T05:14:14.545Z,100425.31
2023-03-16T05:16:58.595Z,100429.56
2023-03-16T05:19:27.305Z,100433.75
2023-03-16T05:21:56.923Z,100437.19
2023-03-16T05:24:25.092Z,100426.97
2023-03-16T05:26:54.508Z,100424.22
2023-03-16T05:29:27.048Z,100425.69
2023-03-16T05:31:57.009Z,100422.97
2023-03-16T05:34:28.216Z,100423.56
2023-03-16T05:36:56.443Z,100422.47
2023-03-16T05:39:24.835Z,100414.06
2023-03-16T05:41:55.464Z,100418.22
2023-03-16T05:44:41.391Z,100410.72
2023-03-16T05:47:19.544Z,100414.28
2023-03-16T05:49:52.439Z,100404.25
2023-03-16T05:52:35.709Z,100400.69
2023-03-16T05:55:12.228Z,100410.72
2023-03-16T05:57:42.762Z,100404.63
2023-03-16T06:00:14.755Z,100406.16
2023-03-16T06:02:52.298Z,100401.97
2023-03-16T06:05:22.120Z,100405.16
2023-03-16T06:07:51.831Z,100413.56
2023-03-16T06:10:20.821Z,100410.53
2023-03-16T06:12:51.497Z,100410.78
2023-03-16T06:15:25.379Z,100405.53
2023-03-16T06:17:56.712Z,100417.00
2023-03-16T06:20:24.953Z,100407.28
2023-03-16T06:22:53.218Z,100415.72
2023-03-16T06:25:21.604Z,100423.59
2023-03-16T06:27:50.918Z,100422.03
2023-03-16T06:30:20.977Z,100423.72
2023-03-16T06:32:48.868Z,100415.31
2023-03-16T06:35:16.569Z,100425.78
2023-03-16T06:37:59.023Z,100432.09
2023-03-16T06:40:42.818Z,100438.22
2023-03-16T06:43:12.491Z,100435.63
2023-03-16T06:45:40.713Z,100437.34
2023-03-16T06:48:09.958Z,100438.28
2023-03-16T06:50:38.501Z,100440.41
2023-03-16T06:53:06.471Z,100447.22
2023-03-16T06:55:37.069Z,100452.22
2023-03-16T06:58:05.293Z,100450.94
2023-03-16T07:00:34.899Z,100449.97
2023-03-16T07:03:03.443Z,100448.81
2023-03-16T07:05:33.344Z,100457.38
2023-03-16T07:08:02.412Z,100446.56
2023-03-16T07:10:32.360Z,100442.13
2023-03-16T07:13:00.290Z,100448.00
2023-03-16T07:15:28.283Z,100443.25
2023-03-16T07:17:59.550Z,100443.78
2023-03-16T07:20:30.529Z,100442.16
2023-03-16T07:23:00.381Z,100446.34
2023-03-16T07:25:28.422Z,100447.38
2023-03-16T07:27:56.171Z,100449.75
2023-03-16T07:30:31.327Z,100450.53
2023-03-16T07:33:03.684Z,100450.50
2023-03-16T07:35:33.599Z,100452.59
2023-03-16T07:38:01.826Z,100459.38
2023-03-16T07:40:30.145Z,100453.91
2023-03-16T07:43:06.431Z,100446.84
2023-03-16T07:45:49.234Z,100452.03
2023-03-16T07:48:20.482Z,100440.66
2023-03-16T07:50:57.583Z,100444.25
2023-03-16T07:53:26.174Z,100445.31
2023-03-16T07:56:08.051Z,100445.56
2023-03-16T07:58:38.780Z,100445.19
2023-03-16T08:01:06.844Z,100441.19
2023-03-16T08:03:38.384Z,100447.31
2023-03-16T08:06:07.937Z,100443.94
2023-03-16T08:08:37.470Z,100438.25
2023-03-16T08:11:05.456Z,100437.88
2023-03-16T08:13:54.063Z,100439.66
2023-03-16T08:16:22.694Z,100440.72
2023-03-16T08:18:52.923Z,100445.59
2023-03-16T08:21:21.743Z,100438.00
2023-03-16T08:23:52.223Z,100444.63
2023-03-16T08:26:21.964Z,100443.84
2023-03-16T08:28:55.299Z,100448.94
2023-03-16T08:31:25.820Z,100440.09
2023-03-16T08:34:08.064Z,100422.56
2023-03-16T08:36:44.135Z,100426.75
2023-03-16T08:39:14.021Z,100431.72
2023-03-16T08:41:47.405Z,100433.28
2023-03-16T08:44:28.417Z,100430.91
2023-03-16T08:46:57.249Z,100428.25
2023-03-16T08:49:29.318Z,100423.63
2023-03-16T08:52:06.424Z,100431.50
2023-03-16T08:54:36.844Z,100419.34
2023-03-16T08:57:05.205Z,100420.31
2023-03-16T08:59:33.485Z,100423.31
2023-03-16T09:02:02.020Z,100426.22
2023-03-16T09:04:32.855Z,100422.00
2023-03-16T09:07:09.681Z,100425.25
2023-03-16T09:09:38.606Z,100419.56
2023-03-16T09:12:07.533Z,100416.50
2023-03-16T09:14:37.756Z,100414.13
2023-03-16T09:17:07.647Z,100410.81
2023-03-16T09:19:50.441Z,100415.72
2023-03-16T09:22:19.677Z,100424.97
2023-03-16T09:24:48.756Z,100419.47
2023-03-16T09:27:17.142Z,100418.78
2023-03-16T09:29:45.475Z,100410.56
2023-03-16T09:32:14.264Z,100414.72
2023-03-16T09:34:44.994Z,100406.09
2023-03-16T09:37:12.569Z,100410.47
2023-03-16T09:39:40.356Z,100417.00
2023-03-16T09:42:14.867Z,100408.88
2023-03-16T09:44:47.560Z,100400.66
2023-03-16T09:47:17.006Z,100397.28
2023-03-16T09:49:47.948Z,100399.09
2023-03-16T09:52:24.187Z,100398.22
2023-03-16T09:54:55.558Z,100401.69
2023-03-16T09:57:28.982Z,100402.25
2023-03-16T10:00:11.963Z,100398.44
2023-03-16T10:02:46.623Z,100392.34
2023-03-16T10:05:17.351Z,100395.03
2023-03-16T10:07:51.514Z,100394.28
2023-03-16T10:10:24.201Z,100395.91
2023-03-16T10:12:53.296Z,100404.97
2023-03-16T10:15:24.569Z,100395.03
2023-03-16T10:17:56.388Z,100391.59
2023-03-16T10:20:27.916Z,100395.38
2023-03-16T10:22:57.096Z,100396.81
2023-03-16T10:25:28.596Z,100391.41
2023-03-16T10:27:57.357Z,100388.91
2023-03-16T10:30:28.350Z,100385.72
2023-03-16T10:32:57.533Z,100377.47
2023-03-16T10:35:36.241Z,100379.47
2023-03-16T10:38:04.412Z,100396.56
2023-03-16T10:40:32.502Z,100393.00
2023-03-16T10:43:06.096Z,100389.94
2023-03-16T10:45:35.867Z,100383.00
2023-03-16T10:48:07.460Z,100384.84
2023-03-16T10:50:37.728Z,100376.59
2023-03-16T10:53:05.837Z,100384.00
2023-03-16T10:55:42.717Z,100382.88
2023-03-16T10:58:10.828Z,100370.00
2023-03-16T11:00:40.061Z,100365.59
2023-03-16T11:03:15.172Z,100353.66
2023-03-16T11:05:46.259Z,100363.03
2023-03-16T11:08:17.616Z,100355.47
2023-03-16T11:10:55.465Z,100352.16
2023-03-16T11:13:26.506Z,100359.81
2023-03-16T11:15:57.844Z,100357.09
2023-03-16T11:18:31.405Z,100356.66
2023-03-16T11:21:05.194Z,100354.69
2023-03-16T11:23:35.683Z,100356.38
2023-03-16T11:26:05.011Z,100355.38
2023-03-16T11:28:36.977Z,100350.84
2023-03-16T11:31:11.865Z,100353.53
2023-03-16T11:33:40.386Z,100350.06
2023-03-16T11:36:17.788Z,100344.13
2023-03-16T11:38:49.610Z,100345.94
2023-03-16T11:41:25.095Z,100347.09
2023-03-16T11:43:54.371Z,100340.50
2023-03-16T11:46:24.826Z,100330.53
2023-03-16T11:49:01.479Z,100338.34
2023-03-16T11:51:41.161Z,100326.03
2023-03-16T11:54:24.224Z,100322.44
2023-03-16T11:56:55.632Z,100309.25
2023-03-16T11:59:46.326Z,100307.59
2023-03-16T12:02:29.833Z,100301.53
2023-03-16T12:05:06.198Z,100291.47
2023-03-16T12:07:49.161Z,100277.84
2023-03-16T12:10:23.610Z,100278.00
2023-03-16T12:13:01.541Z,100282.72
2023-03-16T12:15:35.012Z,100271.00
2023-03-16T12:18:06.829Z,100269.25
2023-03-16T12:20:36.866Z,100269.53
2023-03-16T12:23:09.344Z,100270.25
2023-03-16T12:25:38.296Z,100272.72
2023-03-16T12:28:08.345Z,100267.69
2023-03-16T12:30:39.603Z,100275.53
2023-03-16T12:33:14.457Z,100272.09
2023-03-16T12:35:47.144Z,100273.25
2023-03-16T12:38:28.468Z,100264.88
2023-03-16T12:41:04.038Z,100266.13
2023-03-16T12:43:42.714Z,100259.19
2023-03-16T12:46:14.430Z,100252.56
2023-03-16T12:48:46.024Z,100247.66
2023-03-16T12:51:13.978Z,100253.00
2023-03-16T12:53:44.911Z,100249.00
2023-03-16T12:56:13.925Z,100243.72
2023-03-16T12:58:43.991Z,100247.94
2023-03-16T13:01:12.869Z,100251.72
2023-03-16T13:03:42.259Z,100242.34
2023-03-16T13:06:18.428Z,100241.19
2023-03-16T13:08:51.627Z,100255.28
2023-03-16T13:11:20.183Z,100257.53
2023-03-16T13:14:07.418Z,100248.03
2023-03-16T13:16:37.804Z,100220.66
2023-03-16T13:19:18.864Z,100203.78
2023-03-16T13:21:47.067Z,100193.69
2023-03-16T13:24:26.789Z,100187.41
2023-03-16T13:26:55.610Z,100189.78
2023-03-16T13:29:25.852Z,100192.47
2023-03-16T13:31:54.968Z,100183.00
2023-03-16T13:34:24.726Z,100183.34
2023-03-16T13:36:56.975Z,100175.22
2023-03-16T13:39:28.440Z,100169.22
2023-03-16T13:41:59.795Z,100172.72
2023-03-16T13:44:28.439Z,100160.38
2023-03-16T13:46:56.805Z,100162.09
2023-03-16T13:49:25.108Z,100169.81
2023-03-16T13:51:54.060Z,100169.00
2023-03-16T13:54:28.228Z,100168.22
2023-03-16T13:56:58.400Z,100140.72
2023-03-16T13:59:27.313Z,100147.06
2023-03-16T14:01:59.679Z,100137.13
2023-03-16T14:04:29.359Z,100133.56
2023-03-16T14:06:58.084Z,100130.97
2023-03-16T14:09:29.692Z,100146.34
2023-03-16T14:11:58.091Z,100123.16
2023-03-16T14:14:29.045Z,100119.38
2023-03-16T14:17:02.829Z,100122.78
2023-03-16T14:19:36.066Z,100125.25
2023-03-16T14:22:05.166Z,100119.50
2023-03-16T14:24:35.640Z,100109.59
2023-03-16T14:27:17.272Z,100099.41
2023-03-16T14:29:45.788Z,100105.41
2023-03-16T14:32:28.166Z,100100.72
2023-03-16T14:35:03.721Z,100102.34
2023-03-16T14:37:36.134Z,100108.16
2023-03-16T14:40:06.363Z,100104.56
2023-03-16T14:42:34.969Z,100100.28
2023-03-16T14:45:04.831Z,100101.97
2023-03-16T14:47:37.770Z,100096.94
2023-03-16T14:50:08.851Z,100094.84
2023-03-16T14:52:37.602Z,100099.03
2023-03-16T14:55:13.344Z,100078.97
2023-03-16T14:57:43.348Z,100077.47
2023-03-16T15:00:12.651Z,100079.63
2023-03-16T15:02:42.333Z,100086.41
2023-03-16T15:05:11.824Z,100082.03
2023-03-16T15:07:43.454Z,100074.16
2023-03-16T15:10:22.058Z,100072.19
2023-03-16T15:12:56.171Z,100077.66
2023-03-16T15:15:27.518Z,100070.28
2023-03-16T15:17:55.445Z,100068.78
2023-03-16T15:20:25.459Z,100069.13
2023-03-16T15:22:54.179Z,100062.09
2023-03-16T15:25:26.349Z,100062.78
2023-03-16T15:27:55.186Z,100070.66
2023-03-16T15:30:24.091Z,100059.84
2023-03-16T15:32:52.584Z,100050.88
2023-03-16T15:35:22.690Z,100053.09
2023-03-16T15:37:51.601Z,100060.09
2023-03-16T15:40:21.687Z,100056.69
2023-03-16T15:42:51.250Z,100051.03
2023-03-16T15:45:21.093Z,100056.16
2023-03-16T15:47:51.270Z,100046.69
2023-03-16T15:50:22.565Z,100047.13
2023-03-16T15:52:55.174Z,100050.59
2023-03-16T15:55:24.937Z,100044.53
2023-03-16T15:57:58.737Z,100042.72
2023-03-16T16:00:32.188Z,100029.31
2023-03-16T16:03:06.465Z,100034.53
2023-03-16T16:05:35.597Z,100034.25
2023-03-16T16:08:03.298Z,100030.88
2023-03-16T16:10:32.487Z,100027.78
2023-03-16T16:13:02.027Z,100021.50
2023-03-16T16:15:33.735Z,100020.13
2023-03-16T16:18:20.281Z,100019.63
2023-03-16T16:20:49.316Z,100011.34
2023-03-16T16:23:18.106Z,100017.34
2023-03-16T16:25:46.839Z,100022.47
2023-03-16T16:28:17.507Z,100032.13
2023-03-16T16:30:48.016Z,100020.25
2023-03-16T16:33:22.944Z,100020.25
2023-03-16T16:35:51.840Z,100016.34
2023-03-16T16:38:19.834Z,100008.22
2023-03-16T16:40:47.826Z,100020.72
2023-03-16T16:43:29.127Z,100004.28
2023-03-16T16:45:57.144Z,100012.59
2023-03-16T16:48:35.100Z,100010.72
2023-03-16T16:51:02.837Z,100010.84
2023-03-16T16:53:31.038Z,100015.13
2023-03-16T16:55:59.061Z,100014.25
2023-03-16T16:58:27.990Z,100009.97
2023-03-16T17:00:59.950Z,100011.03
2023-03-16T17:03:28.668Z,100019.28
2023-03-16T17:05:58.637Z,100016.81
2023-03-16T17:08:27.576Z,100018.44
2023-03-16T17:10:55.281Z,100012.34
2023-03-16T17:13:27.314Z,100011.50
2023-03-16T17:15:56.630Z,100013.47
2023-03-16T17:18:27.224Z,100012.41
2023-03-16T17:20:55.280Z,100020.91
2023-03-16T17:23:26.411Z,100021.75
2023-03-16T17:25:55.269Z,100016.50
2023-03-16T17:28:23.779Z,100010.63
2023-03-16T17:30:52.583Z,100009.59
2023-03-16T17:33:21.803Z,100007.66
2023-03-16T17:35:49.556Z,100007.75
2023-03-16T17:38:21.216Z,100003.06
2023-03-16T17:40:51.670Z,100008.75
2023-03-16T17:43:20.381Z,100009.66
2023-03-16T17:45:48.935Z,100001.50
2023-03-16T17:48:17.753Z,100006.50
2023-03-16T17:50:48.769Z,100005.25
2023-03-16T17:53:17.675Z,100000.81
2023-03-16T17:55:46.861Z,100006.53
2023-03-16T17:58:22.505Z,100002.66
2023-03-16T18:00:50.632Z,99995.63
2023-03-16T18:03:24.882Z,99988.22
2023-03-16T18:05:55.676Z,99995.25
2023-03-16T18:08:26.045Z,99989.91
2023-03-16T18:10:54.940Z,99985.28
2023-03-16T18:13:24.765Z,99984.72
2023-03-16T18:15:53.509Z,99985.19
2023-03-16T18:18:22.326Z,99979.00
2023-03-16T18:20:51.081Z,99977.50
2023-03-16T18:23:21.689Z,99977.59
2023-03-16T18:25:52.734Z,99982.59
2023-03-16T18:28:22.055Z,99975.84
2023-03-16T18:30:52.118Z,99987.03
2023-03-16T18:33:25.163Z,99980.38
2023-03-16T18:35:54.655Z,99974.53
2023-03-16T18:38:27.275Z,99967.25
2023-03-16T18:40:58.394Z,99966.84
2023-03-16T18:43:27.390Z,99967.88
2023-03-16T18:45:55.930Z,99967.03
2023-03-16T18:48:27.459Z,99975.94
2023-03-16T18:50:58.515Z,99969.16
2023-03-16T18:53:29.494Z,99967.47
2023-03-16T18:55:58.804Z,99963.38
2023-03-16T18:58:27.441Z,99960.19
2023-03-16T19:00:57.392Z,99958.56
2023-03-16T19:03:27.539Z,99961.81
2023-03-16T19:06:04.180Z,99960.97
2023-03-16T19:08:34.799Z,99965.81
2023-03-16T19:11:04.296Z,99968.84
2023-03-16T19:13:34.872Z,99959.16
2023-03-16T19:16:04.362Z,99964.91
2023-03-16T19:18:32.719Z,99968.44
2023-03-16T19:21:00.844Z,99977.28
2023-03-16T19:23:33.703Z,99984.13
2023-03-16T19:26:04.132Z,99968.91
2023-03-16T19:28:34.591Z,99959.94
2023-03-16T19:31:03.306Z,99961.94
2023-03-16T19:33:31.751Z,99956.94
2023-03-16T19:36:00.206Z,99963.84
2023-03-16T19:38:30.374Z,99952.84
2023-03-16T19:40:59.876Z,99963.38
2023-03-16T19:43:30.096Z,99965.00
2023-03-16T19:45:58.564Z,99960.81
2023-03-16T19:48:29.425Z,99962.47
2023-03-16T19:50:57.871Z,99956.09
2023-03-16T19:53:26.625Z,99956.69
2023-03-16T19:55:55.243Z,99952.72
2023-03-16T19:58:29.354Z,99955.38
2023-03-16T20:01:02.459Z,99944.09
2023-03-16T20:03:33.006Z,99944.91
2023-03-16T20:06:02.314Z,99936.75
2023-03-16T20:08:31.121Z,99942.00
2023-03-16T20:11:01.118Z,99936.34
2023-03-16T20:13:36.008Z,99938.34
2023-03-16T20:16:06.133Z,99930.59
2023-03-16T20:18:34.201Z,99933.28
2023-03-16T20:21:02.471Z,99929.25
2023-03-16T20:23:31.442Z,99929.44
2023-03-16T20:26:02.644Z,99933.59
2023-03-16T20:28:34.756Z,99929.78
2023-03-16T20:31:03.976Z,99924.25
2023-03-16T20:33:33.935Z,99922.44
2023-03-16T20:36:02.300Z,99915.19
2023-03-16T20:38:30.693Z,99914.78
2023-03-16T20:41:02.829Z,99911.31
2023-03-16T20:43:32.311Z,99913.97
2023-03-16T20:46:01.313Z,99916.81
2023-03-16T20:48:31.523Z,99916.31
2023-03-16T20:51:01.781Z,99917.28
2023-03-16T20:53:30.186Z,99915.72
2023-03-16T20:55:59.777Z,99917.78
2023-03-16T20:58:30.680Z,99903.72
2023-03-16T21:01:03.992Z,99903.88
2023-03-16T21:03:33.825Z,99902.63
2023-03-16T21:06:03.820Z,99903.41
2023-03-16T21:08:32.100Z,99896.13
2023-03-16T21:11:00.731Z,99893.63
2023-03-16T21:13:31.469Z,99891.97
2023-03-16T21:16:02.009Z,99884.88
2023-03-16T21:18:30.933Z,99894.31
2023-03-16T21:20:59.277Z,99889.63
2023-03-16T21:23:30.802Z,99891.78
2023-03-16T21:26:04.055Z,99893.22
2023-03-16T21:28:34.863Z,99893.88
2023-03-16T21:31:07.218Z,99897.63
2023-03-16T21:33:37.605Z,99887.88
2023-03-16T21:36:09.719Z,99881.22
2023-03-16T21:38:39.975Z,99883.88
2023-03-16T21:41:09.112Z,99882.81
2023-03-16T21:43:37.389Z,99888.13
2023-03-16T21:46:05.782Z,99890.88
2023-03-16T21:48:38.288Z,99887.63
2023-03-16T21:51:15.901Z,99880.38
2023-03-16T21:53:48.228Z,99883.25
2023-03-16T21:56:17.997Z,99884.75
2023-03-16T21:58:46.740Z,99880.53
2023-03-16T22:01:23.333Z,99880.44
2023-03-16T22:03:55.268Z,99874.44
2023-03-16T22:06:23.956Z,99868.69
2023-03-16T22:08:53.709Z,99870.91
2023-03-16T22:11:25.212Z,99859.44
2023-03-16T22:13:54.419Z,99867.94
2023-03-16T22:16:23.590Z,99871.38
2023-03-16T22:18:52.874Z,99857.53
2023-03-16T22:21:29.474Z,99866.69
2023-03-16T22:24:01.639Z,99853.63
2023-03-16T22:26:30.100Z,99855.56
2023-03-16T22:28:58.094Z,99854.88
2023-03-16T22:31:29.169Z,99850.63
2023-03-16T22:33:57.592Z,99847.16
2023-03-16T22:36:26.070Z,99843.91
2023-03-16T22:38:57.543Z,99827.75
2023-03-16T22:41:27.894Z,99839.28
2023-03-16T22:43:57.531Z,99849.44
2023-03-16T22:46:29.750Z,99841.63
2023-03-16T22:48:58.951Z,99843.00
2023-03-16T22:51:30.095Z,99827.81
2023-03-16T22:54:00.141Z,99836.53
2023-03-16T22:56:30.867Z,99834.28
2023-03-16T22:59:02.765Z,99822.06
2023-03-16T23:01:34.742Z,99828.22
2023-03-16T23:04:03.201Z,99829.81
2023-03-16T23:06:32.796Z,99825.50
2023-03-16T23:09:04.082Z,99825.50
2023-03-16T23:11:35.190Z,99821.75
2023-03-16T23:14:04.367Z,99820.25
2023-03-16T23:16:35.364Z,99832.00
2023-03-16T23:19:09.825Z,99828.66
2023-03-16T23:21:42.977Z,99828.94
2023-03-16T23:24:11.668Z,99819.69
2023-03-16T23:26:44.049Z,99817.19
2023-03-16T23:29:12.452Z,99823.78
2023-03-16T23:31:40.993Z,99814.34
2023-03-16T23:34:12.848Z,99817.69
2023-03-16T23:36:41.200Z,99821.09
2023-03-16T23:39:10.852Z,99810.78
2023-03-16T23:41:40.329Z,99816.03
2023-03-16T23:44:10.567Z,99810.38
2023-03-16T23:50:22.986Z,99807.28
2023-03-16T23:52:51.186Z,99801.28
2023-03-16T23:55:19.499Z,99800.69
2023-03-16T23:57:49.400Z,99798.03
